Greenough, Australia
Current Conditions -  °F | °C
As of 8:30 PM on Sunday 21 Dec 2014 (Local Time) from YGEL Reporting Station
Clear Clear  
Wind Chill: 68°   Ceiling: Unl
Heat Index: 68°   Visibility: 6mi
Dew Point: 61°   Wind: 23mph
Humidity: 78%   Direction: 170°S
Pressure: 29.88"   Gusts: NA
Location:  28.95°S, 114.76°E
Report Text: YGEL 211230Z AUTO 17020KT 9999 // NCD 20/16 Q1012
Loading
Personal Weather Stations






























Interactive Weather Map New forecast layout! Learn more

10-Day Weather Forecast

Advertisements
Track Severe Weather on mobile